Time;durP1;ratioP1;P1;durP2;ratioP2;P2;SDS_P1;SDS_P2;PMS_P1;PMS_P2;Temp;Humidity;BMP_temperature;BMP_pressure;BME280_temperature;BME280_humidity;BME280_pressure;Samples;Min_cycle;Max_cycle;Signal;HPM_P1;HPM_P2
2022/11/05 00:10:05;;;;;;;48.80;28.90;;;;;;;4.46;85.78;99705.26;102390;1301;22605;-61
2022/11/05 00:18:03;;;;;;;47.30;28.50;;;;;;;4.49;87.35;99699.53;102529;1301;24247;-61
2022/11/05 00:20:30;;;;;;;;;;;;;;;4.53;88.20;99701.56;102387;1309;138113;-62
2022/11/05 00:25:53;;;;;;;41.00;25.90;;;;;;;4.61;89.61;99700.73;102453;1294;138581;-60
2022/11/05 00:28:20;;;;;;;39.40;24.20;;;;;;;4.65;90.15;99701.13;102485;1303;22968;-59
2022/11/05 00:30:47;;;;;;;;;;;;;;;4.69;90.71;99705.64;102499;1291;22491;-60
2022/11/05 00:33:14;;;;;;;35.50;21.90;;;;;;;4.72;91.50;99710.78;102446;1301;124067;-59
2022/11/05 00:35:40;;;;;;;;;;;;;;;4.75;91.77;99709.52;102512;1298;22471;-59
2022/11/05 00:38:07;;;;;;;39.70;25.60;;;;;;;4.80;92.57;99705.70;102376;1310;125729;-61
2022/11/05 00:40:34;;;;;;;;;;;;;;;4.84;93.08;99699.13;102345;1290;22676;-59
2022/11/05 00:45:46;;;;;;;38.70;24.00;;;;;;;4.96;93.68;99701.58;102413;1292;22501;-62
2022/11/05 00:50:58;;;;;;;38.90;25.10;;;;;;;5.07;94.26;99690.23;102456;1295;139842;-60
2022/11/05 00:53:25;;;;;;;;;;;;;;;5.12;94.87;99695.33;102458;1293;22484;-60
2022/11/05 00:55:52;;;;;;;35.90;22.30;;;;;;;5.16;94.91;99695.11;102216;1293;124156;-59
2022/11/05 00:58:19;;;;;;;;;;;;;;;5.19;94.72;99694.71;102290;1287;22466;-58
2022/11/05 01:00:51;;;;;;;36.10;24.10;;;;;;;5.22;95.04;99698.23;102422;1296;22562;-60
2022/11/05 01:03:19;;;;;;;33.00;23.00;;;;;;;5.25;94.97;99701.43;102330;1301;139705;-60
2022/11/05 01:05:48;;;;;;;32.80;22.40;;;;;;;5.28;95.09;99700.29;102479;1293;25141;-61
2022/11/05 01:08:16;;;;;;;42.40;25.30;;;;;;;5.30;94.98;99700.15;102214;1303;138376;-61
2022/11/05 01:10:45;;;;;;;36.30;25.00;;;;;;;5.32;94.78;99702.42;102431;1310;24348;-60
2022/11/05 01:13:12;;;;;;;38.30;24.50;;;;;;;5.32;94.84;99702.92;106677;1298;137991;-61
2022/11/05 01:15:39;;;;;;;37.10;24.20;;;;;;;5.33;94.48;99704.58;106764;1302;22240;-60
2022/11/05 01:18:05;;;;;;;;;;;;;;;5.34;94.70;99700.98;106747;1295;22346;-61
2022/11/05 01:20:32;;;;;;;29.10;19.70;;;;;;;5.36;94.50;99704.17;106657;1303;124176;-62
2022/11/05 01:22:59;;;;;;;25.90;18.70;;;;;;;5.33;94.10;99706.32;106686;1293;22190;-61
2022/11/05 01:25:26;;;;;;;28.40;18.90;;;;;;;5.30;93.50;99711.71;106609;1299;138702;-61
2022/11/05 01:27:53;;;;;;;;;;;;;;;5.26;93.10;99709.35;106677;1303;22359;-60
2022/11/05 01:30:19;;;;;;;28.70;18.30;;;;;;;5.23;92.84;99708.45;106765;1303;22126;-60
2022/11/05 01:32:46;;;;;;;29.50;21.80;;;;;;;5.23;92.31;99704.35;106585;1300;139010;-61
2022/11/05 01:35:14;;;;;;;;;;;;;;;5.24;92.40;99705.71;106768;1303;22407;-60
2022/11/05 01:37:41;;;;;;;29.40;21.20;;;;;;;5.24;92.50;99704.88;106669;1303;125909;-60
2022/11/05 01:40:10;;;;;;;32.80;21.70;;;;;;;5.26;92.74;99704.13;106683;1303;23012;-61
2022/11/05 01:42:37;;;;;;;29.30;21.00;;;;;;;5.27;92.78;99709.77;106593;1291;22242;-61
2022/11/05 01:45:13;;;;;;;35.90;22.10;;;;;;;5.27;93.24;99713.17;106611;1299;140531;-61
2022/11/05 01:47:49;;;;;;;29.90;20.10;;;;;;;5.27;93.34;99719.61;106741;1303;22252;-60
2022/11/05 01:50:36;;;;;;;33.40;21.10;;;;;;;5.27;93.46;99718.79;106465;1299;139410;-61
2022/11/05 01:53:05;;;;;;;36.40;21.60;;;;;;;5.27;93.85;99716.58;106794;1303;22223;-61
2022/11/05 01:55:37;;;;;;;30.50;21.30;;;;;;;5.27;94.01;99713.84;106485;1305;140616;-61
2022/11/05 01:58:05;;;;;;;37.30;23.70;;;;;;;5.28;94.25;99713.33;106720;1303;22105;-60
2022/11/05 02:00:33;;;;;;;37.70;21.90;;;;;;;5.28;94.50;99716.45;106668;1298;22213;-61
2022/11/05 02:02:59;;;;;;;37.70;20.60;;;;;;;5.28;94.39;99720.77;106670;1302;138218;-61
2022/11/05 02:05:26;;;;;;;38.10;23.30;;;;;;;5.28;95.11;99721.15;106678;1303;22127;-61
2022/11/05 02:07:53;;;;;;;43.20;23.40;;;;;;;5.28;95.34;99716.78;106658;1303;139461;-61
2022/11/05 02:10:20;;;;;;;41.00;23.60;;;;;;;5.30;95.84;99716.73;106639;1298;22188;-61
2022/11/05 02:12:47;;;;;;;41.50;22.70;;;;;;;5.33;95.92;99719.66;106768;1299;22141;-61
2022/11/05 02:15:16;;;;;;;36.40;23.00;;;;;;;5.33;96.29;99720.60;106558;1288;137909;-61
2022/11/05 02:17:46;;;;;;;38.90;24.70;;;;;;;5.40;96.45;99725.34;106712;1289;22174;-61
2022/11/05 02:20:44;;;;;;;42.10;25.50;;;;;;;5.45;96.91;99724.90;106609;1302;138735;-61
2022/11/05 02:23:39;;;;;;;37.70;22.60;;;;;;;5.49;96.86;99714.45;106674;1306;22110;-61
2022/11/05 02:26:24;;;;;;;41.80;24.60;;;;;;;5.52;96.95;99719.25;106619;1303;138208;-61
2022/11/05 02:29:12;;;;;;;39.60;22.50;;;;;;;5.55;97.18;99721.23;106755;1298;22271;-61
2022/11/05 02:31:45;;;;;;;40.50;24.80;;;;;;;5.58;97.39;99725.45;106631;1303;139404;-61
2022/11/05 02:34:50;;;;;;;45.80;25.50;;;;;;;5.60;97.37;99718.83;106738;1302;22152;-61
2022/11/05 02:37:40;;;;;;;35.60;24.50;;;;;;;5.63;97.34;99706.94;102841;1306;138284;-60
2022/11/05 02:40:12;;;;;;;33.50;23.80;;;;;;;5.64;97.32;99695.56;102350;1287;22483;-59
2022/11/05 02:43:39;;;;;;;34.50;23.90;;;;;;;5.59;97.60;99690.14;102381;1310;24316;-60
2022/11/05 02:46:17;;;;;;;31.50;20.60;;;;;;;5.59;97.54;99693.22;106185;1310;22199;-61
2022/11/05 02:48:52;;;;;;;;;;;;;;;5.55;97.20;99693.88;106197;1311;22336;-61
2022/11/05 02:51:45;;;;;;;32.70;17.90;;;;;;;5.51;97.29;99695.31;106103;1292;125107;-61
2022/11/05 02:54:27;;;;;;;28.10;18.00;;;;;;;5.47;97.33;99696.13;105601;1308;23203;-61
2022/11/05 02:56:54;;;;;;;25.70;16.30;;;;;;;5.43;97.37;99701.09;105641;1303;138515;-61
2022/11/05 02:59:20;;;;;;;;;;;;;;;5.43;97.43;99705.33;105655;1306;22553;-60
2022/11/05 03:01:47;;;;;;;18.90;13.10;;;;;;;5.42;97.63;99709.90;105710;1303;124514;-60
2022/11/05 03:04:15;;;;;;;;;;;;;;;5.42;97.64;99709.13;105720;1314;22414;-60
2022/11/05 03:07:11;;;;;;;23.90;15.00;;;;;;;5.41;97.70;99700.39;105697;1314;22324;-60
2022/11/05 03:10:14;;;;;;;18.50;13.70;;;;;;;5.38;97.77;99703.44;105706;1314;22175;-60
2022/11/05 03:12:55;;;;;;;19.80;14.00;;;;;;;5.34;97.50;99697.58;105742;1314;22310;-60
2022/11/05 03:15:37;;;;;;;17.90;13.10;;;;;;;5.36;97.82;99707.78;105527;1300;138674;-60
2022/11/05 03:18:11;;;;;;;20.70;13.10;;;;;;;5.34;97.74;99705.58;106081;1310;22175;-60
2022/11/05 03:20:37;;;;;;;19.30;13.90;;;;;;;5.34;97.53;99709.50;106031;1310;138757;-60
2022/11/05 03:23:35;;;;;;;24.60;13.30;;;;;;;5.33;97.77;99712.63;106326;1308;22143;-60
2022/11/05 03:26:10;;;;;;;19.70;13.50;;;;;;;5.29;97.59;99715.17;106218;1301;140942;-60
2022/11/05 03:28:38;;;;;;;26.70;14.80;;;;;;;5.34;97.61;99729.45;106197;1310;22220;-60
2022/11/05 03:31:05;;;;;;;23.90;14.90;;;;;;;5.34;97.54;99732.16;106191;1307;138141;-61
2022/11/05 03:33:32;;;;;;;18.70;13.40;;;;;;;5.33;97.76;99732.91;106711;1302;22135;-61
2022/11/05 03:36:02;;;;;;;24.60;14.80;;;;;;;5.34;97.91;99732.81;106652;1291;22949;-62
2022/11/05 03:38:31;;;;;;;20.20;14.00;;;;;;;5.36;97.87;99732.27;106428;1290;138959;-61
2022/11/05 03:41:00;;;;;;;20.20;15.00;;;;;;;5.37;98.18;99729.35;106579;1294;22122;-61
2022/11/05 03:43:28;;;;;;;22.70;14.90;;;;;;;5.38;98.16;99725.48;106453;1302;139878;-61
2022/11/05 03:45:57;;;;;;;22.40;14.50;;;;;;;5.38;98.15;99725.42;106789;1303;22265;-60
2022/11/05 03:48:25;;;;;;;19.70;14.80;;;;;;;5.39;98.17;99725.67;106754;1302;22878;-61
2022/11/05 03:51:00;;;;;;;23.20;15.10;;;;;;;5.35;98.32;99722.13;106524;1302;137941;-61
2022/11/05 03:53:32;;;;;;;22.80;15.20;;;;;;;5.38;98.23;99730.50;106763;1294;22268;-61
2022/11/05 03:56:20;;;;;;;20.70;15.30;;;;;;;5.37;98.01;99731.17;106444;1302;137959;-61
2022/11/05 03:58:47;;;;;;;21.70;13.80;;;;;;;5.36;98.07;99737.79;106734;1297;23234;-61
2022/11/05 04:01:16;;;;;;;22.60;14.10;;;;;;;5.35;98.02;99737.09;106486;1298;138286;-61
2022/11/05 04:03:43;;;;;;;23.40;15.80;;;;;;;5.34;97.83;99736.69;106646;1294;22388;-61
2022/11/05 04:14:26;;;;;;;22.00;15.00;;;;;;;5.28;97.94;99740.64;106636;1302;137964;-60
2022/11/05 04:17:05;;;;;;;;;;;;;;;5.27;97.72;99739.70;106796;1288;22435;-60
2022/11/05 04:25:03;;;;;;;21.90;16.90;;;;;;;5.17;97.65;99751.15;106632;1302;138178;-60
2022/11/05 04:27:30;;;;;;;;;;;;;;;5.15;97.78;99754.65;106768;1303;23457;-61
2022/11/05 04:33:05;;;;;;;19.50;14.60;;;;;;;5.10;97.85;99761.02;106665;1303;138041;-61
2022/11/05 04:35:40;;;;;;;22.30;13.20;;;;;;;5.06;98.13;99760.79;106707;1302;22387;-61
2022/11/05 04:38:17;;;;;;;19.50;14.10;;;;;;;5.05;98.04;99762.80;106583;1300;137897;-61
2022/11/05 04:40:45;;;;;;;20.70;14.00;;;;;;;5.00;98.43;99765.17;106686;1294;22245;-60
2022/11/05 04:43:16;;;;;;;17.60;13.50;;;;;;;5.02;98.40;99771.60;106658;1279;138611;-61
2022/11/05 04:45:44;;;;;;;24.50;15.50;;;;;;;5.02;98.37;99780.83;106791;1302;22982;-61
2022/11/05 04:48:11;;;;;;;20.00;14.20;;;;;;;5.03;98.53;99783.31;106629;1302;22242;-61
2022/11/05 04:50:38;;;;;;;20.60;13.70;;;;;;;5.02;98.64;99792.04;106594;1302;138000;-61
2022/11/05 04:53:04;;;;;;;;;;;;;;;5.00;98.73;99792.83;106758;1303;23140;-60
2022/11/05 04:55:31;;;;;;;20.40;15.10;;;;;;;5.01;98.74;99791.67;106710;1302;124556;-60
2022/11/05 04:57:58;;;;;;;24.40;16.10;;;;;;;5.00;98.84;99791.75;106731;1302;22650;-60
2022/11/05 05:00:25;;;;;;;;;;;;;;;5.00;98.86;99794.28;106772;1294;22368;-61
2022/11/05 05:02:51;;;;;;;23.70;16.30;;;;;;;5.00;99.03;99797.02;106613;1295;125755;-61
2022/11/05 05:05:18;;;;;;;;;;;;;;;4.98;98.94;99797.45;106746;1303;23532;-60
2022/11/05 05:07:45;;;;;;;20.10;14.00;;;;;;;4.99;99.32;99803.38;106639;1303;124078;-61
2022/11/05 05:10:12;;;;;;;22.10;14.90;;;;;;;5.01;99.51;99807.16;106755;1302;22134;-60
2022/11/05 05:12:38;;;;;;;19.80;14.70;;;;;;;5.02;99.71;99807.41;106750;1295;22126;-60
2022/11/05 05:15:06;;;;;;;23.60;13.40;;;;;;;5.03;99.69;99817.88;106653;1302;138552;-61
2022/11/05 05:17:35;;;;;;;20.90;13.10;;;;;;;5.04;99.81;99822.73;106698;1294;22130;-60
2022/11/05 05:22:52;;;;;;;23.30;15.20;;;;;;;5.09;99.66;99828.13;106758;1302;22206;-60
2022/11/05 05:25:19;;;;;;;18.50;13.40;;;;;;;5.10;99.75;99834.23;106611;1303;138741;-61
2022/11/05 05:27:45;;;;;;;20.10;13.90;;;;;;;5.12;99.64;99837.05;106459;1310;22110;-61
2022/11/05 05:30:12;;;;;;;18.40;13.30;;;;;;;5.13;99.79;99838.22;106779;1302;22274;-61
2022/11/05 05:32:39;;;;;;;;;;;;;;;5.14;99.89;99836.80;106630;1288;138047;-60
2022/11/05 05:35:06;;;;;;;21.80;15.40;;;;;;;5.15;99.77;99836.30;106721;1293;22237;-61
2022/11/05 05:37:32;;;;;;;22.30;15.20;;;;;;;5.14;99.53;99837.18;106611;1303;138140;-61
2022/11/05 05:39:59;;;;;;;23.70;15.40;;;;;;;5.13;99.82;99837.05;106818;1303;22123;-60
2022/11/05 05:42:26;;;;;;;25.70;16.30;;;;;;;5.12;99.72;99841.13;106751;1302;22226;-61
2022/11/05 05:44:53;;;;;;;23.20;15.80;;;;;;;5.09;99.79;99837.11;106673;1288;138103;-60
2022/11/05 05:47:19;;;;;;;27.20;17.00;;;;;;;5.12;99.78;99843.13;106821;1303;22098;-61
2022/11/05 05:49:46;;;;;;;;;;;;;;;5.13;99.98;99844.16;106674;1297;138810;-61
2022/11/05 05:52:13;;;;;;;28.90;17.60;;;;;;;5.13;99.81;99849.89;106688;1302;22185;-61
2022/11/05 05:54:40;;;;;;;31.60;18.10;;;;;;;5.12;99.92;99846.40;106790;1295;22215;-61
2022/11/05 05:57:08;;;;;;;25.40;16.20;;;;;;;5.13;99.99;99847.02;106622;1301;138011;-61
2022/11/05 05:59:35;;;;;;;;;;;;;;;5.14;100.00;99849.34;106783;1302;23428;-61
2022/11/05 06:02:02;;;;;;;26.40;18.00;;;;;;;5.17;100.00;99847.52;106681;1302;124467;-60
2022/11/05 06:04:29;;;;;;;24.40;17.40;;;;;;;5.21;100.00;99847.68;106747;1303;23015;-61
2022/11/05 06:06:55;;;;;;;23.40;16.80;;;;;;;5.24;100.00;99851.20;106758;1302;22162;-61
2022/11/05 06:09:22;;;;;;;29.30;18.60;;;;;;;5.27;100.00;99855.73;106666;1294;137923;-60
2022/11/05 06:11:49;;;;;;;;;;;;;;;5.28;100.00;99851.98;106745;1298;23126;-60
2022/11/05 06:14:16;;;;;;;28.20;19.60;;;;;;;5.37;100.00;99862.73;106666;1303;124743;-59
2022/11/05 06:16:43;;;;;;;;;;;;;;;5.40;100.00;99866.84;103864;1288;25280;-60
2022/11/05 06:19:09;;;;;;;25.10;17.80;;;;;;;5.43;100.00;99871.08;102245;1312;124930;-59
2022/11/05 06:21:36;;;;;;;24.30;16.20;;;;;;;5.45;100.00;99874.89;102392;1296;22498;-60
2022/11/05 06:24:03;;;;;;;;;;;;;;;5.48;100.00;99882.05;102404;1288;22452;-58
2022/11/05 06:26:30;;;;;;;28.20;17.80;;;;;;;5.50;100.00;99883.91;102272;1285;124205;-60
2022/11/05 06:28:57;;;;;;;34.50;19.60;;;;;;;5.50;100.00;99882.95;102218;1298;22481;-60
2022/11/05 06:31:23;;;;;;;;;;;;;;;5.49;100.00;99881.83;102372;1296;138640;-61
2022/11/05 06:33:50;;;;;;;26.40;16.90;;;;;;;5.46;100.00;99875.10;102630;1303;22517;-60
2022/11/05 06:36:17;;;;;;;;;;;;;;;5.44;100.00;99875.27;102528;1310;22570;-60
2022/11/05 06:38:44;;;;;;;31.30;20.70;;;;;;;5.41;100.00;99874.48;102278;1289;124242;-60
2022/11/05 06:41:11;;;;;;;;;;;;;;;5.41;100.00;99877.80;102352;1284;24002;-59
2022/11/05 06:43:38;;;;;;;28.00;18.30;;;;;;;5.40;100.00;99880.05;102275;1293;125328;-60
2022/11/05 06:46:04;;;;;;;;;;;;;;;5.39;100.00;99876.39;102530;1289;24260;-58
2022/11/05 06:51:06;;;;;;;24.50;16.60;;;;;;;5.41;100.00;99881.22;99657;1326;545588;-60
2022/11/05 06:53:34;;;;;;;26.50;17.40;;;;;;;5.39;100.00;99881.15;101152;1308;22574;-60
2022/11/05 06:56:05;;;;;;;27.30;18.50;;;;;;;5.40;100.00;99888.41;105501;1315;138023;-61
2022/11/05 06:58:32;;;;;;;31.40;16.50;;;;;;;5.39;100.00;99893.98;105747;1316;23737;-61
2022/11/05 07:01:00;;;;;;;22.80;16.20;;;;;;;5.38;100.00;99895.31;105552;1318;22267;-61
2022/11/05 07:03:27;;;;;;;24.80;16.80;;;;;;;5.40;100.00;99902.34;105745;1308;22147;-61
2022/11/05 07:05:54;;;;;;;28.60;18.30;;;;;;;5.43;100.00;99899.88;105023;1308;1024986;-61
2022/11/05 07:08:20;;;;;;;;;;;;;;;5.47;100.00;99910.29;105441;1315;138104;-61
2022/11/05 07:10:47;;;;;;;23.70;16.80;;;;;;;5.51;100.00;99916.29;105749;1315;23230;-61
2022/11/05 07:13:14;;;;;;;28.10;18.20;;;;;;;5.55;100.00;99917.61;105664;1300;140545;-61
2022/11/05 07:15:42;;;;;;;30.80;18.10;;;;;;;5.57;100.00;99919.15;104762;1305;22493;-59
2022/11/05 07:18:08;;;;;;;35.80;18.50;;;;;;;5.63;100.00;99921.27;101241;1306;22495;-58
2022/11/05 07:20:35;;;;;;;36.40;20.00;;;;;;;5.66;100.00;99922.54;101162;1306;139341;-60
2022/11/05 07:23:06;;;;;;;51.10;32.10;;;;;;;5.68;100.00;99918.78;101306;1313;22588;-61
2022/11/05 07:25:33;;;;;;;47.10;26.90;;;;;;;5.71;100.00;99917.40;105281;1317;138344;-60
2022/11/05 07:28:00;;;;;;;;;;;;;;;5.70;100.00;99917.44;105920;1314;22360;-60
2022/11/05 07:30:26;;;;;;;41.30;21.60;;;;;;;5.67;100.00;99920.33;106132;1301;23169;-60
2022/11/05 07:32:53;;;;;;;39.40;23.00;;;;;;;5.62;100.00;99920.68;106048;1310;139009;-60
2022/11/05 07:35:20;;;;;;;41.60;23.30;;;;;;;5.60;100.00;99920.83;106186;1309;22208;-60
2022/11/05 07:37:48;;;;;;;;;;;;;;;5.60;100.00;99924.30;106006;1303;137580;-60
2022/11/05 07:40:17;;;;;;;41.70;24.40;;;;;;;5.60;100.00;99921.80;106128;1312;21944;-60
2022/11/05 07:42:44;;;;;;;39.30;22.60;;;;;;;5.59;100.00;99915.10;106153;1302;22258;-60
2022/11/05 07:45:11;;;;;;;37.30;21.80;;;;;;;5.57;100.00;99909.52;105985;1312;138434;-59
2022/11/05 07:47:43;;;;;;;49.90;25.30;;;;;;;5.57;100.00;99909.15;101724;1303;22604;-60
2022/11/05 07:50:10;;;;;;;34.60;21.40;;;;;;;5.58;100.00;99905.46;105723;1305;139752;-60
2022/11/05 07:52:37;;;;;;;29.50;18.30;;;;;;;5.57;100.00;99901.80;106108;1288;22176;-59
2022/11/05 07:55:04;;;;;;;35.00;23.00;;;;;;;5.57;100.00;99904.34;106050;1304;138723;-60
2022/11/05 07:57:31;;;;;;;35.40;22.00;;;;;;;5.57;100.00;99907.04;106068;1310;22161;-60
2022/11/05 07:59:58;;;;;;;32.40;19.90;;;;;;;5.59;100.00;99918.14;106127;1306;22191;-60
2022/11/05 08:02:26;;;;;;;39.00;21.30;;;;;;;5.63;100.00;99920.39;106000;1301;139907;-60
2022/11/05 08:04:54;;;;;;;29.20;18.80;;;;;;;5.67;100.00;99921.48;106104;1310;22858;-60
2022/11/05 08:07:20;;;;;;;28.70;19.30;;;;;;;5.70;100.00;99918.02;106344;1291;138410;-60
2022/11/05 08:09:47;;;;;;;29.20;19.70;;;;;;;5.71;100.00;99918.89;106476;1306;22152;-60
2022/11/05 08:12:14;;;;;;;;;;;;;;;5.71;100.00;99922.84;106529;1306;22374;-61
2022/11/05 08:14:40;;;;;;;29.80;20.50;;;;;;;5.72;100.00;99930.92;106382;1308;123886;-61
2022/11/05 08:17:07;;;;;;;26.90;19.30;;;;;;;5.73;100.00;99937.83;106544;1306;22248;-61
2022/11/05 08:19:34;;;;;;;;;;;;;;;5.74;100.00;99938.18;106396;1306;139440;-60
2022/11/05 08:22:01;;;;;;;28.00;20.50;;;;;;;5.72;100.00;99939.36;106510;1299;22150;-60
2022/11/05 08:24:27;;;;;;;;;;;;;;;5.71;100.00;99939.86;106447;1301;22394;-60
2022/11/05 08:26:54;;;;;;;30.40;18.50;;;;;;;5.70;100.00;99945.77;106434;1306;125084;-60
2022/11/05 08:29:21;;;;;;;26.50;19.20;;;;;;;5.68;100.00;99944.58;106493;1306;22182;-60
2022/11/05 08:31:47;;;;;;;;;;;;;;;5.65;100.00;99944.83;106408;1309;137953;-61
2022/11/05 08:34:14;;;;;;;26.30;17.60;;;;;;;5.59;100.00;99947.41;106455;1308;22190;-60
2022/11/05 08:36:45;;;;;;;26.80;20.00;;;;;;;5.54;100.00;99954.23;103427;1292;24452;-60
2022/11/05 08:39:12;;;;;;;37.20;20.20;;;;;;;5.50;100.00;99961.11;101971;1295;138462;-61
2022/11/05 08:41:43;;;;;;;29.00;18.10;;;;;;;5.49;100.00;99969.02;102236;1296;22658;-60
2022/11/05 08:44:10;;;;;;;27.40;18.00;;;;;;;5.49;100.00;99979.20;102086;1304;138261;-61
2022/11/05 08:46:37;;;;;;;;;;;;;;;5.49;100.00;99984.23;102142;1304;24379;-62
2022/11/05 08:49:07;;;;;;;25.70;16.80;;;;;;;5.48;100.00;99987.89;101908;1314;125654;-60
2022/11/05 08:51:34;;;;;;;26.40;16.70;;;;;;;5.48;100.00;99988.04;101990;1306;22477;-60
2022/11/05 08:54:00;;;;;;;;;;;;;;;5.46;100.00;99987.34;102055;1304;22676;-60
2022/11/05 08:56:27;;;;;;;26.60;17.50;;;;;;;5.47;100.00;99992.66;101861;1292;124040;-60
2022/11/05 08:58:54;;;;;;;29.20;19.30;;;;;;;5.46;100.00;99990.95;102157;1297;22800;-61
2022/11/05 09:01:21;;;;;;;28.90;19.00;;;;;;;5.48;100.00;99992.00;101894;1298;138836;-61
2022/11/05 09:03:51;;;;;;;26.70;18.70;;;;;;;5.49;100.00;99988.09;106089;1313;22708;-61
2022/11/05 09:06:21;;;;;;;28.30;17.90;;;;;;;5.51;100.00;99989.55;106466;1306;22956;-61
2022/11/05 09:08:47;;;;;;;27.70;18.90;;;;;;;5.52;100.00;99988.46;106368;1308;139596;-61
2022/11/05 09:11:15;;;;;;;27.10;19.00;;;;;;;5.55;100.00;99985.02;106516;1308;22224;-61
2022/11/05 09:13:42;;;;;;;35.90;22.60;;;;;;;5.56;100.00;99984.25;106419;1306;138094;-61
2022/11/05 09:16:17;;;;;;;;;;;;;;;5.59;100.00;99988.16;106547;1296;22549;-55
2022/11/05 09:18:43;;;;;;;38.00;21.40;;;;;;;5.63;100.00;99987.52;106510;1300;22137;-55
2022/11/05 09:21:10;;;;;;;45.20;25.30;;;;;;;5.66;100.00;99990.61;106393;1289;138379;-55
2022/11/05 09:23:37;;;;;;;46.60;29.70;;;;;;;5.71;100.00;99993.35;106478;1306;22373;-55
2022/11/05 09:26:04;;;;;;;40.10;25.50;;;;;;;5.75;100.00;99989.63;106366;1297;138380;-55
2022/11/05 09:28:32;;;;;;;43.10;28.90;;;;;;;5.77;100.00;99985.17;106470;1295;23395;-55
2022/11/05 09:30:59;;;;;;;39.60;26.10;;;;;;;5.79;100.00;99985.05;106461;1282;22148;-55
2022/11/05 09:33:26;;;;;;;42.30;24.70;;;;;;;5.81;100.00;99986.92;106312;1283;138006;-55
2022/11/05 09:35:53;;;;;;;38.50;25.50;;;;;;;5.83;100.00;99987.59;106459;1306;23216;-55
2022/11/05 09:38:20;;;;;;;;;;;;;;;5.83;100.00;99978.52;106336;1306;138332;-55
2022/11/05 09:40:54;;;;;;;38.80;25.80;;;;;;;5.83;100.00;99978.80;106468;1294;22145;-55
2022/11/05 09:43:23;;;;;;;41.70;26.40;;;;;;;5.84;100.00;99977.67;106318;1292;138205;-54
2022/11/05 09:45:57;;;;;;;39.30;25.20;;;;;;;5.82;100.00;99969.88;104919;1295;22485;-54
2022/11/05 09:48:27;;;;;;;45.00;28.40;;;;;;;5.87;100.00;99976.39;102037;1292;26111;-53
2022/11/05 09:50:53;;;;;;;46.00;28.90;;;;;;;5.87;100.00;99971.42;106433;1306;138126;-54
2022/11/05 09:53:21;;;;;;;;;;;;;;;5.86;100.00;99971.52;106486;1306;22404;-54
2022/11/05 09:55:58;;;;;;;51.30;32.00;;;;;;;5.87;100.00;99980.84;106304;1293;125049;-55
2022/11/05 09:58:42;;;;;;;49.60;29.10;;;;;;;5.88;100.00;99992.17;106229;1307;23389;-55
2022/11/05 10:01:12;;;;;;;43.40;28.80;;;;;;;5.90;100.00;99993.92;106337;1306;138610;-55
2022/11/05 10:03:43;;;;;;;64.50;37.00;;;;;;;5.91;100.00;99992.70;106316;1308;22386;-55
2022/11/05 10:06:12;;;;;;;76.20;45.20;;;;;;;5.93;100.00;99997.16;106450;1306;22126;-55
2022/11/05 10:08:41;;;;;;;60.20;35.80;;;;;;;5.93;100.00;100003.11;106174;1306;138549;-55
2022/11/05 10:11:21;;;;;;;53.80;30.70;;;;;;;5.92;100.00;100005.15;106445;1306;22314;-56
2022/11/05 10:13:50;;;;;;;61.60;44.40;;;;;;;5.91;100.00;100002.98;106287;1308;138591;-56
2022/11/05 10:16:30;;;;;;;62.70;42.20;;;;;;;5.92;100.00;100002.89;106434;1308;22221;-56
2022/11/05 10:19:12;;;;;;;62.80;36.80;;;;;;;5.92;100.00;100007.82;106423;1305;22167;-56
2022/11/05 10:21:39;;;;;;;46.00;28.10;;;;;;;5.88;100.00;100000.91;106252;1308;22784;-55
2022/11/05 10:24:26;;;;;;;145.30;57.30;;;;;;;5.88;100.00;100005.15;106454;1304;22108;-56
2022/11/05 10:26:52;;;;;;;69.20;31.50;;;;;;;5.88;100.00;100009.18;106332;1307;138726;-56
2022/11/05 10:29:29;;;;;;;44.60;28.20;;;;;;;5.89;100.00;100003.86;106368;1309;22777;-55
2022/11/05 10:31:56;;;;;;;45.40;29.40;;;;;;;5.89;100.00;100003.08;106332;1300;138945;-55
2022/11/05 10:34:26;;;;;;;53.50;29.20;;;;;;;5.89;100.00;100001.48;106492;1306;22166;-55
2022/11/05 10:36:53;;;;;;;38.60;25.90;;;;;;;5.89;100.00;100002.06;106480;1299;22218;-55
2022/11/05 10:39:20;;;;;;;58.80;28.20;;;;;;;5.86;100.00;99999.94;106523;1304;138385;-55
2022/11/05 10:42:09;;;;;;;41.70;26.60;;;;;;;5.83;100.00;100004.23;106548;1298;22192;-55
2022/11/05 10:45:08;;;;;;;47.60;27.30;;;;;;;5.80;100.00;100009.39;106484;1303;140835;-55
2022/11/05 10:47:53;;;;;;;96.70;68.60;;;;;;;5.80;100.00;100013.22;104335;1295;22493;-53
2022/11/05 10:50:23;;;;;;;52.20;32.90;;;;;;;5.82;100.00;100015.29;106542;1306;138579;-57
2022/11/05 10:52:53;;;;;;;57.00;36.80;;;;;;;5.83;100.00;100013.25;106420;1306;22167;-57
2022/11/05 10:55:25;;;;;;;41.20;26.40;;;;;;;5.85;100.00;100021.27;106495;1304;139047;-57
2022/11/05 10:57:51;;;;;;;34.80;22.00;;;;;;;5.86;100.00;100022.55;106504;1298;22123;-58
2022/11/05 11:00:22;;;;;;;;;;;;;;;5.87;100.00;100021.06;106544;1306;23023;-58
2022/11/05 11:03:02;;;;;;;115.90;53.70;;;;;;;5.87;100.00;100023.85;106420;1306;124592;-58
2022/11/05 11:05:30;;;;;;;46.80;30.10;;;;;;;5.87;100.00;100018.25;106708;1302;23027;-58
2022/11/05 11:08:00;;;;;;;45.40;30.80;;;;;;;5.88;100.00;100018.44;106656;1294;138589;-58
2022/11/05 11:10:27;;;;;;;39.70;23.90;;;;;;;5.88;100.00;100010.25;106701;1296;23491;-58
2022/11/05 11:12:55;;;;;;;33.40;22.20;;;;;;;5.88;100.00;100008.63;106715;1302;23108;-57
2022/11/05 11:15:27;;;;;;;42.80;25.70;;;;;;;5.86;100.00;100007.21;106063;1305;140489;-57
2022/11/05 11:17:55;;;;;;;47.40;26.40;;;;;;;5.84;100.00;100008.84;102133;1307;24732;-56
2022/11/05 11:20:24;;;;;;;49.60;34.60;;;;;;;5.82;100.00;100013.38;102377;1304;138777;-57
2022/11/05 11:23:10;;;;;;;38.50;26.70;;;;;;;5.82;100.00;100018.87;106769;1302;22928;-58
2022/11/05 11:25:48;;;;;;;34.00;21.00;;;;;;;5.83;100.00;100025.73;106572;1299;139394;-58
2022/11/05 11:28:17;;;;;;;107.70;53.10;;;;;;;5.86;100.00;100030.02;106716;1303;23557;-58
2022/11/05 11:30:48;;;;;;;44.70;24.20;;;;;;;5.88;100.00;100031.52;106616;1303;22236;-57
2022/11/05 11:33:18;;;;;;;40.80;23.90;;;;;;;5.89;100.00;100035.19;106482;1297;138694;-58
2022/11/05 11:35:45;;;;;;;45.10;23.30;;;;;;;5.89;100.00;100035.80;106595;1297;22388;-58
2022/11/05 11:38:13;;;;;;;51.30;36.60;;;;;;;5.87;100.00;100031.98;106444;1303;138523;-57
2022/11/05 11:40:40;;;;;;;62.30;39.10;;;;;;;5.90;100.00;100034.31;106628;1304;22225;-58
2022/11/05 11:43:20;;;;;;;77.20;33.70;;;;;;;5.90;100.00;100030.86;106648;1302;138733;-57
2022/11/05 11:45:48;;;;;;;99.70;35.70;;;;;;;5.90;100.00;100028.77;106621;1305;22129;-56
2022/11/05 11:48:26;;;;;;;56.00;30.10;;;;;;;5.90;100.00;100031.23;106569;1303;22149;-53
2022/11/05 11:50:53;;;;;;;252.00;77.30;;;;;;;5.93;100.00;100030.23;106633;1301;138470;-54
2022/11/05 11:53:20;;;;;;;150.70;50.10;;;;;;;5.97;100.00;100027.57;106571;1299;22175;-53
2022/11/05 11:56:18;;;;;;;208.90;62.20;;;;;;;5.97;100.00;100029.35;106587;1296;139231;-54
2022/11/05 11:58:51;;;;;;;43.00;25.10;;;;;;;5.96;100.00;100030.73;106657;1298;22141;-54
2022/11/05 12:01:28;;;;;;;32.40;21.90;;;;;;;5.97;100.00;100027.40;106658;1295;140064;-54
2022/11/05 12:04:17;;;;;;;34.50;19.90;;;;;;;5.97;100.00;100028.52;106581;1293;22097;-54
2022/11/05 12:06:50;;;;;;;46.30;25.40;;;;;;;5.94;100.00;100022.42;106734;1303;22187;-54
2022/11/05 12:09:42;;;;;;;34.30;21.30;;;;;;;5.94;100.00;100018.09;106638;1291;140537;-55
2022/11/05 12:12:13;;;;;;;40.20;22.30;;;;;;;5.94;100.00;100014.59;106701;1288;22244;-55
2022/11/05 12:15:00;;;;;;;122.30;44.10;;;;;;;5.94;100.00;100014.39;106507;1303;139675;-54
2022/11/05 12:17:38;;;;;;;50.50;31.80;;;;;;;5.95;100.00;100019.17;106634;1302;22160;-55
2022/11/05 12:20:23;;;;;;;97.40;47.10;;;;;;;5.96;100.00;100017.17;106659;1303;138661;-54